createdAt,value
2023-03-22T00:05:06.589Z,67.1
2023-03-22T00:10:46.208Z,67.1
2023-03-22T00:16:21.466Z,67
2023-03-22T00:22:18.977Z,67.1
2023-03-22T00:27:56.873Z,67.5
2023-03-22T00:33:33.800Z,67.6
2023-03-22T00:39:34.256Z,67.6
2023-03-22T00:45:53.664Z,67.6
2023-03-22T00:51:32.368Z,67.8
2023-03-22T00:57:17.163Z,67.8
2023-03-22T01:02:52.593Z,68.1
2023-03-22T01:08:37.089Z,68.2
2023-03-22T01:14:12.244Z,68
2023-03-22T01:19:47.220Z,68
2023-03-22T01:25:26.192Z,68.2
2023-03-22T01:31:01.329Z,68
2023-03-22T01:36:40.130Z,67.7
2023-03-22T01:42:17.744Z,67.7
2023-03-22T01:48:07.174Z,68
2023-03-22T01:54:10.877Z,68.2
2023-03-22T01:59:43.939Z,68.6
2023-03-22T02:05:26.284Z,68.2
2023-03-22T02:11:02.061Z,67.7
2023-03-22T02:16:40.214Z,67.7
2023-03-22T02:22:16.306Z,67.9
2023-03-22T02:27:54.726Z,68.2
2023-03-22T02:34:16.487Z,68.5
2023-03-22T02:39:57.346Z,68.5
2023-03-22T02:45:42.022Z,68.3
2023-03-22T02:51:27.649Z,68.7
2023-03-22T02:57:05.341Z,68.8
2023-03-22T03:02:40.354Z,68.7
2023-03-22T03:08:15.472Z,68.6
2023-03-22T03:13:51.789Z,68.9
2023-03-22T03:19:27.630Z,69.2
2023-03-22T03:25:28.885Z,69.4
2023-03-22T03:31:16.154Z,69.6
2023-03-22T03:36:52.855Z,69.5
2023-03-22T03:42:28.041Z,69.6
2023-03-22T03:48:18.259Z,69.8
2023-03-22T03:54:16.235Z,70.2
2023-03-22T03:59:49.556Z,70.6
2023-03-22T04:05:25.804Z,70.8
2023-03-22T04:11:47.379Z,70.7
2023-03-22T04:17:30.628Z,70.6
2023-03-22T04:23:10.252Z,70.8
2023-03-22T04:28:55.391Z,70.6
2023-03-22T04:34:30.963Z,70.6
2023-03-22T04:40:06.271Z,70.3
2023-03-22T04:45:43.624Z,70.2
2023-03-22T04:51:24.344Z,69.9
2023-03-22T04:57:00.514Z,69.6
2023-03-22T05:02:43.258Z,69.2
2023-03-22T05:08:20.504Z,69.6
2023-03-22T05:13:58.603Z,69.6
2023-03-22T05:20:10.817Z,69.2
2023-03-22T05:26:28.993Z,69.2
2023-03-22T05:32:13.884Z,69.4
2023-03-22T05:37:49.126Z,69.5
2023-03-22T05:43:49.469Z,69.7
2023-03-22T05:49:35.025Z,69.7
2023-03-22T05:55:40.025Z,69.5
2023-03-22T06:01:14.116Z,69.6
2023-03-22T06:07:07.355Z,69.4
2023-03-22T06:12:54.296Z,69.4
2023-03-22T06:18:33.109Z,69.3
2023-03-22T06:24:08.546Z,69.2
2023-03-22T06:29:46.760Z,69.1
2023-03-22T06:35:23.468Z,69.3
2023-03-22T06:41:10.883Z,69.4
2023-03-22T06:46:54.898Z,69.6
2023-03-22T06:52:38.058Z,69.8
2023-03-22T06:58:18.328Z,74.7
2023-03-22T07:04:17.645Z,76.5
2023-03-22T07:09:53.716Z,77.4
2023-03-22T07:16:17.602Z,77.9
2023-03-22T07:21:58.953Z,76.7
2023-03-22T07:27:40.054Z,75
2023-03-22T07:34:02.938Z,74
2023-03-22T07:39:38.251Z,73.2
2023-03-22T07:45:17.813Z,72.8
2023-03-22T07:50:53.941Z,73
2023-03-22T07:56:28.909Z,72.4
2023-03-22T08:02:13.129Z,72.2
2023-03-22T08:07:49.442Z,68.9
2023-03-22T08:13:30.730Z,69.5
2023-03-22T08:19:13.873Z,67.9
2023-03-22T08:24:49.145Z,69.7
2023-03-22T08:30:37.769Z,68.3
2023-03-22T08:36:17.618Z,67.3
2023-03-22T08:42:12.774Z,61.3
2023-03-22T08:48:05.374Z,64.4
2023-03-22T08:53:45.112Z,61.6
2023-03-22T08:59:31.682Z,58.1
2023-03-22T09:05:09.528Z,48.6
2023-03-22T09:11:30.816Z,46.3
2023-03-22T09:17:14.514Z,48.7
2023-03-22T09:22:59.918Z,50.7
2023-03-22T09:28:36.863Z,44.3
2023-03-22T09:34:13.144Z,37.3
2023-03-22T09:39:49.082Z,48.4
2023-03-22T09:45:45.646Z,45.8
2023-03-22T09:51:20.656Z,41.3
2023-03-22T09:56:58.728Z,38.7
2023-03-22T10:02:38.625Z,36.5
2023-03-22T10:08:46.818Z,40.4
2023-03-22T10:14:25.745Z,32
2023-03-22T10:20:01.378Z,33.3
2023-03-22T10:25:45.359Z,36.9
2023-03-22T10:31:22.185Z,35.2
2023-03-22T10:36:58.386Z,34.7
2023-03-22T10:42:33.779Z,35.5
2023-03-22T10:48:24.332Z,31.6
2023-03-22T10:54:30.430Z,37.2
2023-03-22T11:00:04.063Z,37.4
2023-03-22T11:05:44.848Z,40.8
2023-03-22T11:11:25.317Z,38.9
2023-03-22T11:17:09.764Z,36.5
2023-03-22T11:23:05.767Z,35.7
2023-03-22T11:29:14.623Z,35.2
2023-03-22T11:35:25.472Z,37.8
2023-03-22T11:41:02.928Z,38.6
2023-03-22T11:46:48.392Z,38.1
2023-03-22T11:52:23.854Z,36.8
2023-03-22T11:58:02.599Z,34.9
2023-03-22T12:03:40.076Z,35.4
2023-03-22T12:09:16.690Z,37.8
2023-03-22T12:14:54.919Z,37.2
2023-03-22T12:20:31.978Z,37.3
2023-03-22T12:26:08.863Z,36.5
2023-03-22T12:32:01.071Z,37.1
2023-03-22T12:37:37.078Z,37.6
2023-03-22T12:43:29.377Z,39
2023-03-22T12:49:11.554Z,42.6
2023-03-22T12:54:47.797Z,41.2
2023-03-22T13:00:24.179Z,40.5
2023-03-22T13:06:05.645Z,38.2
2023-03-22T13:11:44.022Z,38.4
2023-03-22T13:17:29.324Z,36.1
2023-03-22T13:23:05.967Z,36.4
2023-03-22T13:28:44.246Z,33.4
2023-03-22T13:34:44.254Z,31.6
2023-03-22T13:40:19.435Z,35
2023-03-22T13:46:02.651Z,30.8
2023-03-22T13:51:38.397Z,32.9
2023-03-22T13:57:13.589Z,34
2023-03-22T14:02:54.038Z,34.9
2023-03-22T14:08:30.683Z,34.4
2023-03-22T14:14:12.448Z,38
2023-03-22T14:19:56.287Z,34.7
2023-03-22T14:47:52.807Z,33
2023-03-22T14:53:57.735Z,33.7
2023-03-22T14:59:31.468Z,35.5
2023-03-22T15:05:08.185Z,38
2023-03-22T15:11:05.749Z,37.8
2023-03-22T15:16:41.222Z,39.7
2023-03-22T15:22:37.995Z,39.9
2023-03-22T15:28:13.610Z,40.6
2023-03-22T15:33:57.569Z,41.3
2023-03-22T15:39:36.585Z,44.8
2023-03-22T15:45:12.958Z,42.4
2023-03-22T15:50:48.356Z,44.4
2023-03-22T15:56:48.610Z,45.6
2023-03-22T16:02:22.224Z,46.3
2023-03-22T16:08:03.698Z,46.8
2023-03-22T16:13:39.939Z,44.8
2023-03-22T16:19:30.459Z,48.4
2023-03-22T16:25:06.736Z,47.6
2023-03-22T16:30:50.035Z,47.3
2023-03-22T16:36:41.789Z,48.6
2023-03-22T16:42:17.182Z,49.7
2023-03-22T16:48:34.865Z,51
2023-03-22T16:54:10.457Z,49.8
2023-03-22T16:59:46.061Z,52
2023-03-22T17:05:22.727Z,52.9
2023-03-22T17:10:58.457Z,56.7
2023-03-22T17:16:34.534Z,56.2
2023-03-22T17:22:12.066Z,51.4
2023-03-22T17:27:48.809Z,52.4
2023-03-22T17:33:24.081Z,55.5
2023-03-22T17:47:09.979Z,55.1
2023-03-22T18:02:32.991Z,57.6
2023-03-22T18:08:29.408Z,56.4
2023-03-22T18:14:32.631Z,58.5
2023-03-22T18:20:46.290Z,56.4
2023-03-22T18:27:05.129Z,55.9
2023-03-22T18:33:06.260Z,56.4
2023-03-22T18:40:05.065Z,56.3
2023-03-22T18:47:01.066Z,57.3
2023-03-22T18:58:55.568Z,57.7
2023-03-22T19:04:31.337Z,58
2023-03-22T19:10:07.101Z,57
2023-03-22T19:15:50.817Z,58
2023-03-22T19:22:16.491Z,58.1
2023-03-22T19:28:15.770Z,58.5
2023-03-22T19:33:57.184Z,58.4
2023-03-22T19:39:38.146Z,57.6
2023-03-22T19:45:14.151Z,56.9
2023-03-22T19:50:57.254Z,55.2
2023-03-22T19:56:32.736Z,54
2023-03-22T20:02:15.154Z,53.8
2023-03-22T20:07:51.534Z,54.9
2023-03-22T20:13:26.940Z,53.8
2023-03-22T20:19:03.322Z,54.9
2023-03-22T20:24:39.110Z,55.2
2023-03-22T20:30:35.301Z,53.8
2023-03-22T20:36:25.048Z,55.1
2023-03-22T20:42:39.240Z,54.7
2023-03-22T20:48:17.601Z,53.8
2023-03-22T20:53:52.602Z,55.1
2023-03-22T20:59:29.337Z,54.3
2023-03-22T21:05:42.627Z,55
2023-03-22T21:11:18.179Z,54
2023-03-22T21:16:54.429Z,54.2
2023-03-22T21:22:30.973Z,55.6
2023-03-22T21:28:08.422Z,55
2023-03-22T21:34:05.741Z,55
2023-03-22T21:39:52.224Z,56
2023-03-22T21:45:28.615Z,55.2
2023-03-22T21:51:11.052Z,58.1
2023-03-22T21:56:53.890Z,57.3
2023-03-22T22:03:06.329Z,57.6
2023-03-22T22:08:50.738Z,58.6
2023-03-22T22:14:26.345Z,59.3
2023-03-22T22:20:10.769Z,60.2
2023-03-22T22:25:48.510Z,60.4
2023-03-22T22:31:25.437Z,60.6
2023-03-22T22:37:14.147Z,60.3
2023-03-22T22:42:50.310Z,60.1
2023-03-22T22:48:30.622Z,60.2
2023-03-22T22:54:28.800Z,60.4
2023-03-22T23:00:03.131Z,60.7
2023-03-22T23:05:50.107Z,60.6
2023-03-22T23:11:45.865Z,60.4
2023-03-22T23:17:21.442Z,60.2
2023-03-22T23:22:59.963Z,59.7
2023-03-22T23:28:43.946Z,59.9
2023-03-22T23:34:21.046Z,60.3
2023-03-22T23:39:56.502Z,60.2
2023-03-22T23:45:32.890Z,60.2
2023-03-22T23:51:08.560Z,60.4
2023-03-22T23:56:53.041Z,60.9
